Time;durP1;ratioP1;P1;durP2;ratioP2;P2;SDS_P1;SDS_P2;PMS_P1;PMS_P2;Temp;Humidity;BMP_temperature;BMP_pressure;BME280_temperature;BME280_humidity;BME280_pressure;Samples;Min_cycle;Max_cycle;Signal;HPM_P1;HPM_P2
2023/08/24 00:01:50;;;;;;;;;23.33;22.00;;;;;22.16;100.00;99713.16;6312212;20;3575313;-48
2023/08/24 00:04:18;;;;;;;;;20.00;20.00;;;;;22.02;100.00;99711.94;6314494;20;3576294;-49
2023/08/24 00:06:47;;;;;;;;;22.00;21.00;;;;;21.95;100.00;99710.88;6308860;20;3569086;-50
2023/08/24 00:09:16;;;;;;;;;20.00;18.67;;;;;21.92;100.00;99709.34;6308503;20;3560788;-49
2023/08/24 00:11:45;;;;;;;;;24.33;21.00;;;;;22.03;100.00;99709.00;6310081;20;3581909;-49
2023/08/24 00:14:13;;;;;;;;;22.67;22.67;;;;;22.19;100.00;99712.84;6310655;20;3582577;-51
2023/08/24 00:16:43;;;;;;;;;21.33;21.00;;;;;21.99;100.00;99712.28;6303283;20;3543053;-51
2023/08/24 00:19:12;;;;;;;;;24.00;22.33;;;;;22.17;100.00;99714.84;6285323;20;3562790;-49
2023/08/24 00:21:40;;;;;;;;;21.00;20.33;;;;;22.12;100.00;99713.50;6288726;20;3576373;-50
2023/08/24 00:24:09;;;;;;;;;20.33;18.33;;;;;22.19;100.00;99712.84;6285727;20;3578512;-53
2023/08/24 00:26:38;;;;;;;;;25.33;23.67;;;;;22.21;100.00;99721.75;6286068;20;3577337;-50
2023/08/24 00:29:06;;;;;;;;;17.00;17.00;;;;;22.25;100.00;99713.03;6287563;20;3563794;-50
2023/08/24 00:31:35;;;;;;;;;24.00;19.33;;;;;22.11;100.00;99721.84;6285419;20;3585732;-49
2023/08/24 00:34:04;;;;;;;;;23.00;19.33;;;;;22.09;100.00;99711.09;6283101;20;3570165;-51
2023/08/24 00:36:33;;;;;;;;;21.00;20.00;;;;;22.11;100.00;99706.28;6285846;20;3460657;-50
2023/08/24 00:39:02;;;;;;;;;21.33;19.33;;;;;21.92;100.00;99703.88;6313415;20;3580468;-52
2023/08/24 00:41:31;;;;;;;;;22.00;20.33;;;;;21.78;100.00;99699.06;6288100;20;3576342;-50
2023/08/24 00:43:59;;;;;;;;;18.00;17.50;;;;;22.00;100.00;99713.97;6285296;20;2835765;-51
2023/08/24 00:46:28;;;;;;;;;19.00;18.00;;;;;22.09;100.00;99711.09;6285956;20;3576832;-50
2023/08/24 00:48:57;;;;;;;;;26.67;21.67;;;;;22.02;100.00;99712.78;6283366;20;3581505;-53
2023/08/24 00:51:26;;;;;;;;;25.00;23.33;;;;;21.84;100.00;99709.31;6283803;20;3572171;-53
2023/08/24 00:53:57;;;;;;;;;20.00;19.33;;;;;21.61;100.00;99693.50;6281535;20;3577350;-49
2023/08/24 00:56:26;;;;;;;;;19.67;19.67;;;;;21.80;100.00;99694.25;6285327;20;3577376;-49
2023/08/24 00:58:55;;;;;;;;;19.33;18.33;;;;;21.87;100.00;99703.50;6285581;20;3583696;-50
2023/08/24 01:01:24;;;;;;;;;20.00;20.00;;;;;21.78;100.00;99704.53;6287146;20;3573184;-53
2023/08/24 01:03:53;;;;;;;;;22.00;19.00;;;;;21.62;100.00;99711.66;6283465;20;3575466;-50
2023/08/24 01:06:22;;;;;;;;;20.67;20.67;;;;;21.78;100.00;99705.38;6286890;20;3577354;-49
2023/08/24 01:08:51;;;;;;;;;25.33;21.67;;;;;21.48;100.00;99707.66;6281767;20;3575291;-51
2023/08/24 01:11:37;;;;;;;;;20.33;20.00;;;;;21.40;100.00;99704.03;6288535;20;3563938;-50
2023/08/24 01:15:01;;;;;;;;;22.00;20.00;;;;;21.41;100.00;99709.34;6284662;20;3582653;-48
2023/08/24 01:17:31;;;;;;;;;26.33;22.00;;;;;21.18;100.00;99708.16;6283288;20;3587811;-53
2023/08/24 01:20:05;;;;;;;;;25.33;24.00;;;;;21.25;100.00;99715.53;6283342;20;3581545;-50
2023/08/24 01:22:49;;;;;;;;;25.33;23.00;;;;;21.38;100.00;99714.25;6282623;20;3569584;-54
2023/08/24 01:25:34;;;;;;;;;19.33;19.33;;;;;21.33;100.00;99713.84;6283903;20;3576311;-49
2023/08/24 01:28:06;;;;;;;;;27.00;25.67;;;;;21.20;100.00;99715.16;6283222;20;3598251;-49
2023/08/24 01:30:35;;;;;;;;;23.00;20.00;;;;;20.99;100.00;99717.44;6282380;20;3570036;-52
2023/08/24 01:33:05;;;;;;;;;24.00;24.00;;;;;21.01;100.00;99719.00;6280523;20;3577829;-52
2023/08/24 01:35:33;;;;;;;;;25.00;20.67;;;;;21.07;100.00;99719.38;6288287;20;3566300;-53
2023/08/24 01:38:03;;;;;;;;;21.67;21.67;;;;;21.01;100.00;99723.56;6282864;20;3559629;-52
2023/08/24 01:41:12;;;;;;;;;23.33;19.00;;;;;21.22;100.00;99718.59;6284904;20;3586057;-53
2023/08/24 01:43:46;;;;;;;;;24.00;20.00;;;;;21.03;100.00;99719.66;6281198;20;3572276;-49
2023/08/24 01:46:18;;;;;;;;;24.33;17.33;;;;;21.24;100.00;99713.81;6283078;20;3590221;-52
2023/08/24 01:48:48;;;;;;;;;33.25;27.50;;;;;21.00;100.00;99716.41;6279716;20;3619122;-50
2023/08/24 01:51:19;;;;;;;;;25.00;21.00;;;;;21.33;100.00;99711.13;6311952;20;3578384;-51
2023/08/24 01:53:50;;;;;;;;;25.00;23.33;;;;;21.16;100.00;99711.03;6308157;20;3585713;-54
2023/08/24 01:56:18;;;;;;;;;21.00;19.67;;;;;21.25;100.00;99703.78;6312871;20;3568084;-53
2023/08/24 01:58:47;;;;;;;;;26.67;22.67;;;;;21.10;100.00;99703.50;6283516;20;3586735;-53
2023/08/24 02:01:16;;;;;;;;;26.67;22.67;;;;;21.21;100.00;99700.50;6285103;20;3592938;-52
2023/08/24 02:03:45;;;;;;;;;25.00;23.33;;;;;21.17;100.00;99696.38;6282511;20;3587967;-54
2023/08/24 02:06:14;;;;;;;;;25.00;22.00;;;;;20.90;100.00;99688.34;6283027;20;3586836;-53
2023/08/24 02:08:44;;;;;;;;;22.00;19.67;;;;;20.91;100.00;99695.53;6279663;20;3585695;-48
2023/08/24 02:11:13;;;;;;;;;22.00;22.00;;;;;20.79;100.00;99693.06;6286202;20;3583713;-50
2023/08/24 02:13:42;;;;;;;;;22.33;22.33;;;;;20.63;100.00;99698.41;6285600;20;3585836;-52
2023/08/24 02:16:12;;;;;;;;;23.67;22.00;;;;;20.68;100.00;99698.78;6288615;20;3579440;-49
2023/08/24 02:18:41;;;;;;;;;21.00;19.00;;;;;21.01;100.00;99696.25;6284578;20;3570686;-53
2023/08/24 02:21:12;;;;;;;;;23.33;22.67;;;;;20.81;100.00;99712.88;6286191;20;3572130;-51
2023/08/24 02:23:41;;;;;;;;;22.33;20.67;;;;;20.86;100.00;99711.56;6287966;20;3578388;-49
2023/08/24 02:26:10;;;;;;;;;24.67;23.33;;;;;20.80;100.00;99708.44;6286290;20;3577382;-53
2023/08/24 02:28:39;;;;;;;;;21.00;17.00;;;;;20.82;100.00;99698.19;6281206;20;2836735;-50
2023/08/24 02:31:08;;;;;;;;;22.00;21.00;;;;;20.90;100.00;99693.81;6280531;20;3572358;-48
2023/08/24 02:33:37;;;;;;;;;22.67;20.67;;;;;20.82;100.00;99698.19;6283693;20;3563814;-54
2023/08/24 02:36:06;;;;;;;;;21.33;21.33;;;;;20.58;100.00;99700.75;6288474;20;3571203;-61
2023/08/24 02:38:35;;;;;;;;;22.67;22.00;;;;;20.87;100.00;99694.16;6284568;20;3575286;-60
2023/08/24 02:41:06;;;;;;;;;22.67;21.33;;;;;20.76;100.00;99695.25;6286060;20;3567015;-60
2023/08/24 02:43:35;;;;;;;;;24.67;22.67;;;;;20.56;100.00;99694.59;6284642;20;3579506;-61
2023/08/24 02:46:12;;;;;;;;;24.67;24.00;;;;;20.59;100.00;99699.75;6286617;20;3583636;-61
2023/08/24 02:48:41;;;;;;;;;24.33;22.33;;;;;20.70;100.00;99694.03;6284014;20;3585664;-61
2023/08/24 02:51:11;;;;;;;;;24.67;23.33;;;;;20.52;100.00;99694.03;6283767;20;3581532;-60
2023/08/24 02:53:40;;;;;;;;;24.25;24.25;;;;;20.25;100.00;99696.84;6287778;20;3604447;-60
2023/08/24 02:56:09;;;;;;;;;25.67;23.00;;;;;20.01;100.00;99694.75;6314771;20;3587865;-60
2023/08/24 02:58:38;;;;;;;;;24.67;22.00;;;;;20.20;100.00;99693.75;6283832;20;3571119;-60
2023/08/24 03:01:08;;;;;;;;;25.00;25.00;;;;;20.25;100.00;99692.28;6284768;20;3585724;-61
2023/08/24 03:03:37;;;;;;;;;24.00;23.00;;;;;20.26;100.00;99702.16;6285135;20;3580519;-60
2023/08/24 03:06:08;;;;;;;;;25.33;21.33;;;;;20.36;100.00;99708.38;6282112;20;3573180;-60
2023/08/24 03:08:37;;;;;;;;;23.33;23.00;;;;;20.13;100.00;99702.53;6281310;20;3589866;-60
2023/08/24 03:11:06;;;;;;;;;22.67;20.67;;;;;20.32;100.00;99700.66;6282397;20;3564870;-60
2023/08/24 03:13:38;;;;;;;;;26.33;23.00;;;;;20.35;100.00;99700.34;6280857;20;3590944;-61
2023/08/24 03:16:08;;;;;;;;;24.00;22.33;;;;;20.22;100.00;99698.03;6283394;20;3588278;-60
2023/08/24 03:18:37;;;;;;;;;27.00;21.67;;;;;20.26;100.00;99704.88;6284679;20;3577394;-60
2023/08/24 03:21:06;;;;;;;;;23.00;22.00;;;;;20.38;100.00;99711.81;6286373;20;3566926;-61
2023/08/24 03:23:35;;;;;;;;;23.67;19.67;;;;;20.47;100.00;99703.72;6286428;20;3569028;-60
2023/08/24 03:26:03;;;;;;;;;27.00;23.00;;;;;20.36;100.00;99694.75;6282991;20;3576375;-60
2023/08/24 03:28:32;;;;;;;;;23.33;23.33;;;;;20.48;100.00;99694.50;6279043;20;3577489;-61
2023/08/24 03:31:01;;;;;;;;;26.33;23.67;;;;;20.35;100.00;99698.50;6284325;20;3589930;-61
2023/08/24 03:33:30;;;;;;;;;24.67;22.33;;;;;20.04;100.00;99686.28;6283358;20;3579410;-60
2023/08/24 03:35:59;;;;;;;;;26.67;22.00;;;;;20.02;100.00;99691.03;6283393;20;3581609;-60
2023/08/24 03:38:28;;;;;;;;;24.33;22.33;;;;;20.26;100.00;99690.41;6281018;20;3580504;-60
2023/08/24 03:41:05;;;;;;;;;27.67;23.33;;;;;20.10;100.00;99691.09;6284456;20;3596171;-60
2023/08/24 03:43:36;;;;;;;;;24.00;21.00;;;;;20.15;100.00;99688.78;6281525;20;3552387;-60
2023/08/24 03:46:05;;;;;;;;;27.67;22.67;;;;;20.21;100.00;99688.13;6283742;20;3566954;-61
2023/08/24 03:48:34;;;;;;;;;21.33;21.00;;;;;20.41;100.00;99694.28;6280252;20;3575418;-60
2023/08/24 03:51:03;;;;;;;;;25.00;24.67;;;;;20.27;100.00;99692.09;6282602;20;3591960;-60
2023/08/24 03:53:32;;;;;;;;;25.00;23.00;;;;;20.10;100.00;99678.31;6285395;20;3578640;-60
2023/08/24 03:56:01;;;;;;;;;26.00;26.00;;;;;20.14;100.00;99684.31;6289436;20;3576302;-60
2023/08/24 03:58:30;;;;;;;;;25.00;21.00;;;;;20.02;100.00;99696.47;6283630;20;3572245;-60
2023/08/24 04:00:58;;;;;;;;;23.67;22.33;;;;;20.13;100.00;99691.63;6287549;20;3583582;-61
2023/08/24 04:03:27;;;;;;;;;27.00;23.67;;;;;20.02;100.00;99691.03;6289502;20;3595075;-60
2023/08/24 04:05:56;;;;;;;;;20.33;20.00;;;;;20.26;100.00;99696.72;6288689;20;3572131;-60
2023/08/24 04:08:25;;;;;;;;;27.33;25.33;;;;;20.10;100.00;99685.66;6283532;20;3602523;-60
2023/08/24 04:10:54;;;;;;;;;26.67;23.67;;;;;20.38;100.00;99692.72;6289806;20;3585703;-61
2023/08/24 04:13:22;;;;;;;;;24.00;22.00;;;;;20.48;100.00;99697.22;6288686;20;3573189;-60
2023/08/24 04:15:51;;;;;;;;;25.00;24.33;;;;;20.19;100.00;99706.50;6289076;20;3573165;-60
2023/08/24 04:18:20;;;;;;;;;29.33;22.67;;;;;20.28;100.00;99702.00;6286478;20;3603395;-60
2023/08/24 04:20:52;;;;;;;;;25.67;25.67;;;;;20.17;100.00;99708.56;6287739;20;3589202;-60
2023/08/24 04:23:28;;;;;;;;;21.33;21.00;;;;;20.05;100.00;99709.78;6287534;20;3587760;-60
2023/08/24 04:25:58;;;;;;;;;24.67;22.67;;;;;20.31;100.00;99710.72;6285046;20;2840944;-61
2023/08/24 04:28:27;;;;;;;;;23.33;20.00;;;;;20.27;100.00;99714.75;6312209;20;3574270;-55
2023/08/24 04:30:57;;;;;;;;;20.67;20.00;;;;;20.13;100.00;99715.31;6318996;20;3566292;-54
2023/08/24 04:33:26;;;;;;;;;23.67;21.00;;;;;20.31;100.00;99727.09;6288490;20;3580530;-53
2023/08/24 04:35:54;;;;;;;;;20.67;20.00;;;;;20.38;100.00;99727.34;6286753;20;3561780;-51
2023/08/24 04:38:23;;;;;;;;;24.67;21.67;;;;;20.51;100.00;99726.91;6284800;20;3570084;-51
2023/08/24 04:40:55;;;;;;;;;23.00;23.00;;;;;20.57;100.00;99720.88;6288256;20;3588903;-54
2023/08/24 04:43:25;;;;;;;;;23.00;21.33;;;;;20.61;100.00;99716.81;6283056;20;3575287;-52
2023/08/24 04:45:55;;;;;;;;;21.33;21.33;;;;;20.76;100.00;99720.69;6282454;20;3573308;-52
2023/08/24 04:48:26;;;;;;;;;24.00;22.67;;;;;20.83;100.00;99726.38;6286464;20;3565388;-51
2023/08/24 04:50:56;;;;;;;;;23.67;22.67;;;;;20.92;100.00;99730.00;6284470;20;3575368;-53
2023/08/24 04:53:27;;;;;;;;;27.00;25.33;;;;;21.18;100.00;99730.84;6284330;20;3572166;-53
2023/08/24 04:55:57;;;;;;;;;27.33;25.33;;;;;21.20;100.00;99734.28;6315430;20;3591030;-54
2023/08/24 04:58:26;;;;;;;;;27.67;22.00;;;;;21.48;100.00;99731.38;6313042;20;3575302;-51
2023/08/24 05:00:56;;;;;;;;;21.67;21.33;;;;;21.56;100.00;99736.88;6310706;20;3577376;-63
2023/08/24 05:03:25;;;;;;;;;30.00;25.67;;;;;21.79;100.00;99734.41;6315936;20;3602381;-63
2023/08/24 05:05:54;;;;;;;;;24.33;24.33;;;;;22.04;100.00;99731.78;6282426;20;3602431;-63
2023/08/24 05:08:22;;;;;;;;;29.67;27.33;;;;;22.00;100.00;99742.16;6285174;20;3593085;-63
2023/08/24 05:10:52;;;;;;;;;24.67;24.67;;;;;22.02;100.00;99753.78;6283297;20;3585772;-63
2023/08/24 05:13:22;;;;;;;;;27.33;24.00;;;;;22.47;100.00;99751.69;6286830;20;3595138;-63
2023/08/24 05:15:51;;;;;;;;;24.00;24.00;;;;;24.71;95.52;99750.63;6261851;20;3590909;-63
2023/08/24 05:18:19;;;;;;;;;23.33;21.33;;;;;25.22;90.25;99752.75;6282333;20;3569043;-64
2023/08/24 05:20:48;;;;;;;;;24.33;22.67;;;;;25.13;90.63;99755.56;6283195;20;3589844;-62
2023/08/24 05:23:17;;;;;;;;;22.00;21.33;;;;;24.83;92.09;99760.13;6276808;20;3587867;-63
2023/08/24 05:25:46;;;;;;;;;23.00;22.00;;;;;25.19;90.83;99760.31;6275795;20;3581747;-63
2023/08/24 05:28:15;;;;;;;;;22.33;20.33;;;;;24.22;94.08;99760.00;6275328;20;3566015;-63
2023/08/24 05:30:45;;;;;;;;;21.67;21.67;;;;;23.64;100.00;99764.94;6277298;20;3578460;-63
2023/08/24 05:33:14;;;;;;;;;23.00;20.33;;;;;23.99;96.25;99753.66;6274021;20;2828456;-64
2023/08/24 05:35:44;;;;;;;;;21.33;21.33;;;;;24.01;98.48;99765.28;6303909;20;3587823;-64
2023/08/24 05:38:16;;;;;;;;;20.00;19.00;;;;;23.67;99.93;99758.19;6275632;20;3581985;-64
2023/08/24 05:40:49;;;;;;;;;24.00;22.33;;;;;24.23;97.00;99767.22;6278579;20;3577364;-64
2023/08/24 05:43:18;;;;;;;;;22.00;20.33;;;;;23.75;100.00;99763.72;6274044;20;3576320;-63
2023/08/24 05:45:48;;;;;;;;;25.67;24.00;;;;;24.02;100.00;99764.28;6274939;20;3575255;-62
2023/08/24 05:48:17;;;;;;;;;23.00;23.00;;;;;24.82;97.17;99765.81;6278974;20;3589879;-63
2023/08/24 05:50:49;;;;;;;;;23.33;20.67;;;;;24.45;96.79;99768.31;6271946;20;3577478;-62
2023/08/24 05:53:17;;;;;;;;;21.33;21.33;;;;;25.05;96.03;99765.78;6270918;20;3577343;-63
2023/08/24 05:55:47;;;;;;;;;26.00;24.75;;;;;24.59;97.09;99769.41;6269215;20;3602490;-63
2023/08/24 05:58:17;;;;;;;;;21.67;21.33;;;;;25.20;95.18;99777.69;6303209;20;3584666;-63
2023/08/24 06:00:46;;;;;;;;;26.00;25.00;;;;;25.34;92.87;99771.34;6302522;20;3608628;-63
2023/08/24 06:03:15;;;;;;;;;22.00;22.00;;;;;24.66;96.43;99767.63;6269420;20;3559198;-63
2023/08/24 06:05:44;;;;;;;;;22.67;22.33;;;;;24.36;99.15;99763.91;6272093;20;3584701;-63
2023/08/24 06:08:12;;;;;;;;;22.00;21.67;;;;;25.19;96.73;99770.47;6272790;20;1894160;-63
2023/08/24 06:10:44;;;;;;;;;28.57;24.29;;;;;25.61;92.84;99769.81;6321176;20;3598244;-63
2023/08/24 06:13:13;;;;;;;;;25.00;22.33;;;;;25.39;95.56;99765.28;6274670;20;3587734;-62
2023/08/24 06:15:43;;;;;;;;;30.00;27.00;;;;;25.28;95.84;99774.00;6271559;20;3597230;-63
2023/08/24 06:18:12;;;;;;;;;23.00;23.00;;;;;25.37;95.95;99772.88;6270907;20;3577389;-62
2023/08/24 06:20:42;;;;;;;;;27.00;24.00;;;;;25.51;94.92;99777.50;6303166;20;3589839;-61
2023/08/24 06:23:11;;;;;;;;;21.67;21.67;;;;;26.32;91.68;99769.28;6275061;20;3585679;-63
2023/08/24 06:25:40;;;;;;;;;25.33;24.00;;;;;25.72;93.17;99767.66;6272798;20;3577331;-63
2023/08/24 06:28:13;;;;;;;;;21.00;21.00;;;;;25.89;94.24;99774.69;6300956;20;3578378;-63
2023/08/24 06:30:44;;;;;;;;;23.67;23.67;;;;;25.50;95.05;99767.56;6298770;20;3582651;-63
2023/08/24 06:33:13;;;;;;;;;21.00;19.33;;;;;26.21;92.63;99772.53;6305213;20;3559760;-63
2023/08/24 06:35:43;;;;;;;;;25.25;24.75;;;;;28.29;83.63;99779.50;6270672;20;3597153;-63
2023/08/24 06:38:16;;;;;;;;;21.00;20.71;;;;;31.73;67.51;99792.44;6320774;20;3575292;-62
2023/08/24 06:40:44;;;;;;;;;21.67;20.00;;;;;28.89;76.78;99780.50;6272010;20;3572174;-65
2023/08/24 06:43:16;;;;;;;;;26.00;22.86;;;;;29.60;74.50;99785.38;6289049;20;3585764;-65
2023/08/24 06:45:45;;;;;;;;;23.00;23.00;;;;;32.03;65.98;99798.09;6274384;20;3587813;-65
2023/08/24 06:48:17;;;;;;;;;21.29;21.29;;;;;34.36;55.84;99810.13;6319303;20;3560725;-66
2023/08/24 06:50:47;;;;;;;;;20.67;19.33;;;;;34.63;52.88;99810.44;6270759;20;3575286;-66
2023/08/24 06:53:18;;;;;;;;;23.57;20.43;;;;;34.96;51.01;99812.41;6320940;20;3556500;-66
2023/08/24 06:55:53;;;;;;;;;15.67;15.67;;;;;36.84;45.66;99819.09;6271629;20;3554441;-65
2023/08/24 06:58:25;;;;;;;;;22.29;22.29;;;;;36.11;47.49;99824.09;6283259;20;3586761;-65
2023/08/24 07:00:57;;;;;;;;;21.43;20.00;;;;;36.80;45.74;99817.91;6287192;20;3581702;-66
2023/08/24 07:03:26;;;;;;;;;19.00;18.00;;;;;35.93;47.41;99828.00;6271759;20;3564882;-65
2023/08/24 07:05:54;;;;;;;;;13.00;13.00;;;;;38.31;41.58;99830.84;6266100;20;2811770;-65
2023/08/24 07:08:26;;;;;;;;;20.14;18.71;;;;;36.22;45.67;99819.47;6286265;20;3568004;-65
2023/08/24 07:10:54;;;;;;;;;19.67;19.67;;;;;37.00;45.50;99822.88;6268965;20;3579460;-65
2023/08/24 07:13:27;;;;;;;;;20.86;16.71;;;;;37.24;42.83;99831.81;6292441;20;3555521;-65
2023/08/24 07:15:58;;;;;;;;;19.86;19.71;;;;;36.72;44.70;99826.78;6291965;20;3566929;-64
2023/08/24 07:18:27;;;;;;;;;19.00;15.00;;;;;37.52;43.03;99835.41;6270582;20;3550288;-64
2023/08/24 07:20:56;;;;;;;;;16.00;14.33;;;;;38.44;42.13;99835.97;6269068;20;3550321;-64
2023/08/24 07:23:25;;;;;;;;;20.00;17.67;;;;;37.89;41.72;99828.94;6269229;20;3561765;-64
2023/08/24 07:25:54;;;;;;;;;17.50;17.00;;;;;37.64;41.61;99829.63;6301488;20;3443121;-65
2023/08/24 07:28:25;;;;;;;;;16.57;16.57;;;;;37.41;41.97;99836.41;6320882;20;3571161;-65
2023/08/24 07:30:57;;;;;;;;;16.14;16.14;;;;;37.25;43.14;99833.50;6295711;20;3554483;-65
2023/08/24 07:33:28;;;;;;;;;17.71;17.14;;;;;37.47;40.92;99843.75;6295234;20;3557570;-65
2023/08/24 07:36:04;;;;;;;;;22.29;20.71;;;;;33.39;50.67;99820.75;6290307;20;3572905;-65
2023/08/24 07:38:33;;;;;;;;;19.33;18.00;;;;;30.77;61.86;99810.28;6275139;20;3562751;-63
2023/08/24 07:41:02;;;;;;;;;19.67;17.00;;;;;29.77;64.84;99801.53;6275119;20;3565918;-65
2023/08/24 07:43:32;;;;;;;;;20.33;18.33;;;;;30.14;62.41;99803.53;6278003;20;3573198;-65
2023/08/24 07:46:04;;;;;;;;;23.00;20.00;;;;;29.15;67.50;99796.28;6292086;20;3564830;-64
2023/08/24 07:48:36;;;;;;;;;21.00;20.00;;;;;30.03;66.95;99800.59;6276193;20;3577505;-64
2023/08/24 07:51:07;;;;;;;;;16.00;15.00;;;;;30.45;63.36;99803.88;6274204;20;3546281;-64
2023/08/24 07:53:36;;;;;;;;;21.67;21.33;;;;;30.94;61.84;99807.81;6274995;20;3583791;-64
2023/08/24 07:56:05;;;;;;;;;22.00;19.67;;;;;30.12;63.92;99796.50;6275114;20;3568018;-64
2023/08/24 07:58:34;;;;;;;;;19.00;19.00;;;;;29.39;67.58;99797.53;6271306;20;3571129;-64
2023/08/24 08:01:02;;;;;;;;;18.00;17.00;;;;;29.65;65.97;99798.56;6278033;20;3569001;-64
2023/08/24 08:03:31;;;;;;;;;21.67;20.00;;;;;29.82;63.84;99799.81;6275995;20;3581550;-65
2023/08/24 08:06:04;;;;;;;;;21.00;21.00;;;;;29.80;65.08;99804.72;6295412;20;3573201;-64
2023/08/24 08:08:35;;;;;;;;;19.71;19.71;;;;;29.85;65.55;99804.91;6291399;20;3569054;-65
2023/08/24 08:11:07;;;;;;;;;24.29;21.14;;;;;28.85;68.55;99810.44;6293308;20;3581542;-65
2023/08/24 08:13:35;;;;;;;;;21.00;19.67;;;;;29.87;63.67;99810.25;6278974;20;1890916;-63
2023/08/24 08:16:08;;;;;;;;;48.88;32.63;;;;;29.56;63.83;99805.38;6322681;20;3620169;-64
2023/08/24 08:18:39;;;;;;;;;21.14;19.57;;;;;30.22;62.26;99804.34;6285825;20;3570147;-64
2023/08/24 08:21:20;;;;;;;;;21.33;21.33;;;;;30.80;60.26;99818.13;6276441;20;3580541;-64
2023/08/24 08:23:50;;;;;;;;;25.33;21.33;;;;;30.72;59.80;99830.34;6275215;20;3583654;-64
2023/08/24 08:26:18;;;;;;;;;22.67;22.00;;;;;30.26;62.62;99808.44;6276585;20;3590878;-64
2023/08/24 08:28:50;;;;;;;;;21.29;21.14;;;;;30.83;60.04;99815.81;6290164;20;3581504;-63
2023/08/24 08:31:21;;;;;;;;;21.00;20.43;;;;;31.58;59.09;99819.72;6290370;20;3567967;-64
2023/08/24 08:33:52;;;;;;;;;22.29;22.29;;;;;30.53;60.47;99810.00;6294716;20;3591953;-63
2023/08/24 08:36:21;;;;;;;;;19.67;19.67;;;;;31.08;59.86;99823.31;6279322;20;1887881;-64
2023/08/24 08:38:52;;;;;;;;;18.71;18.71;;;;;31.71;57.54;99816.78;6324755;20;3577321;-65
2023/08/24 08:41:23;;;;;;;;;17.00;17.00;;;;;31.56;58.67;99819.94;6274002;20;3550262;-64
2023/08/24 08:43:55;;;;;;;;;21.43;19.86;;;;;31.26;57.31;99822.53;6321205;20;3574245;-64
2023/08/24 08:46:24;;;;;;;;;17.00;17.00;;;;;30.90;56.10;99809.38;6274700;20;3568120;-64
2023/08/24 08:48:53;;;;;;;;;17.00;17.00;;;;;32.09;53.05;99819.38;6275744;20;3564888;-63
2023/08/24 08:51:23;;;;;;;;;15.67;15.67;;;;;32.20;53.15;99811.34;6271970;20;3547117;-63
2023/08/24 08:53:51;;;;;;;;;12.67;12.67;;;;;31.65;53.83;99804.69;6306812;20;3524217;-63
2023/08/24 08:56:24;;;;;;;;;44.50;31.75;;;;;31.47;51.71;99805.50;6320765;20;3623273;-64
2023/08/24 08:58:55;;;;;;;;;15.00;13.50;;;;;31.23;52.14;99804.41;6270973;20;2794039;-64
2023/08/24 09:01:25;;;;;;;;;27.00;22.67;;;;;31.30;53.19;99800.72;6271702;20;1896182;-64
2023/08/24 09:03:58;;;;;;;;;18.57;17.86;;;;;30.64;54.42;99794.56;6322931;20;3569029;-64
2023/08/24 09:06:28;;;;;;;;;16.33;16.00;;;;;30.91;52.77;99795.25;6269800;20;3553688;-63
2023/08/24 09:08:57;;;;;;;;;13.67;13.67;;;;;31.80;50.16;99793.19;6305605;20;3541963;-64
2023/08/24 09:11:26;;;;;;;;;15.00;13.50;;;;;31.77;48.92;99793.66;6268987;20;2816981;-64
2023/08/24 09:13:54;;;;;;;;;9.00;9.00;;;;;31.90;49.64;99795.44;6273016;20;3474861;-63
2023/08/24 09:16:23;;;;;;;;;15.67;15.67;;;;;31.17;48.79;99794.19;6309191;20;3558770;-63
2023/08/24 09:18:52;;;;;;;;;14.33;14.33;;;;;31.25;48.78;99793.94;6272437;20;2483658;-62
2023/08/24 09:21:20;;;;;;;;;15.33;14.00;;;;;31.64;47.54;99791.88;6305987;20;3531512;-63
2023/08/24 09:23:56;;;;;;;;;14.67;12.33;;;;;31.44;47.75;99788.47;6273271;20;3529461;-62
2023/08/24 09:26:34;;;;;;;;;12.00;12.00;;;;;31.14;47.89;99791.03;6305867;20;2483646;-62
2023/08/24 09:29:21;;;;;;;;;13.00;11.67;;;;;31.53;47.13;99787.06;6306229;20;3529525;-63
2023/08/24 09:31:51;;;;;;;;;16.67;15.33;;;;;32.00;48.69;99793.00;6305416;20;3556536;-62
2023/08/24 09:34:26;;;;;;;;;13.33;13.33;;;;;31.37;48.25;99794.06;6274174;20;3537850;-61
2023/08/24 09:36:55;;;;;;;;;14.67;14.67;;;;;31.92;49.57;99790.50;6273506;20;3544029;-61
2023/08/24 09:39:24;;;;;;;;;16.67;16.67;;;;;32.12;48.21;99779.16;6270157;20;3569153;-63
2023/08/24 09:41:54;;;;;;;;;17.67;14.67;;;;;31.61;47.75;99778.44;6304467;20;3554557;-62
2023/08/24 09:44:22;;;;;;;;;16.00;15.00;;;;;31.59;47.77;99786.16;6277583;20;2705520;-60
2023/08/24 09:46:51;;;;;;;;;12.00;12.00;;;;;31.74;47.29;99783.00;6301839;20;2791147;-63
2023/08/24 09:49:20;;;;;;;;;15.50;14.00;;;;;32.45;48.54;99773.16;6270385;20;3423225;-62
2023/08/24 09:51:50;;;;;;;;;15.50;15.50;;;;;31.46;48.39;99769.63;6300510;20;2824355;-62
2023/08/24 09:54:27;;;;;;;;;15.00;15.00;;;;;31.99;50.62;99785.72;6276322;20;3552437;-62
2023/08/24 09:56:57;;;;;;;;;13.50;12.50;;;;;31.28;49.58;99778.72;6274544;20;3382580;-61
2023/08/24 09:59:27;;;;;;;;;16.33;14.67;;;;;31.60;49.09;99779.53;6302738;20;3552468;-63
2023/08/24 10:01:58;;;;;;;;;16.00;16.00;;;;;30.89;51.22;99766.09;6271788;20;3567997;-62
2023/08/24 10:04:37;;;;;;;;;13.00;12.50;;;;;30.82;50.35;99775.28;6300265;20;2796164;-62
2023/08/24 10:07:11;;;;;;;;;20.67;16.00;;;;;30.84;51.58;99767.59;6270784;20;2839439;-63
2023/08/24 10:10:04;;;;;;;;;19.00;16.67;;;;;30.80;51.38;99771.00;6303839;20;3555526;-62
2023/08/24 10:12:44;;;;;;;;;18.00;15.67;;;;;31.07;49.37;99763.38;6270875;20;3562784;-61
2023/08/24 10:15:13;;;;;;;;;14.00;14.00;;;;;31.83;48.83;99764.94;6271888;20;3526427;-62
2023/08/24 10:17:42;;;;;;;;;15.67;13.67;;;;;31.22;46.57;99763.84;6299332;20;3529439;-62
2023/08/24 10:20:11;;;;;;;;;13.33;11.00;;;;;31.35;46.21;99767.59;6305288;20;3526323;-62
2023/08/24 10:22:41;;;;;;;;;7.67;6.33;;;;;31.02;46.51;99764.03;6303991;20;2739947;-61
2023/08/24 10:25:14;;;;;;;;;14.86;14.86;;;;;32.09;45.52;99758.25;6321505;20;3539908;-62
2023/08/24 10:27:45;;;;;;;;;13.00;13.00;;;;;31.94;45.48;99763.38;6303612;20;3527389;-63
2023/08/24 10:30:15;;;;;;;;;13.00;13.00;;;;;31.62;43.03;99757.94;6303845;20;3529504;-62
2023/08/24 10:32:45;;;;;;;;;13.00;13.00;;;;;32.47;43.11;99762.69;6300229;20;2803505;-62
2023/08/24 10:35:15;;;;;;;;;11.00;11.00;;;;;32.00;41.98;99762.44;6274520;20;2483702;-63
2023/08/24 10:37:47;;;;;;;;;13.00;12.00;;;;;31.99;42.18;99763.50;6298653;20;2805658;-62
2023/08/24 10:40:36;;;;;;;;;10.00;10.00;;;;;31.73;42.19;99758.25;6269424;20;2483658;-62
2023/08/24 10:43:06;;;;;;;;;12.00;12.00;;;;;31.88;41.99;99755.94;6299439;20;2784688;-63
2023/08/24 10:45:57;;;;;;;;;13.33;11.67;;;;;31.78;43.60;99750.94;6274331;20;3516006;-64
2023/08/24 10:48:50;;;;;;;;;19.00;15.00;;;;;31.92;42.07;99743.28;6304800;20;1887801;-62
2023/08/24 10:51:26;;;;;;;;;15.00;13.00;;;;;31.47;43.49;99750.00;6298892;20;2810717;-60
2023/08/24 10:54:00;;;;;;;;;13.00;13.00;;;;;31.56;43.07;99738.59;6269083;20;2488216;-59
2023/08/24 10:56:40;;;;;;;;;10.00;10.00;;;;;31.77;43.15;99738.13;6303594;20;2483672;-60
2023/08/24 10:59:19;;;;;;;;;8.00;8.00;;;;;31.41;41.70;99733.41;6297319;20;3463958;-60
2023/08/24 11:02:06;;;;;;;;;11.00;10.67;;;;;31.82;41.52;99740.22;6292430;20;2489863;-60
2023/08/24 11:04:35;;;;;;;;;13.67;13.67;;;;;32.01;40.12;99733.56;6302824;20;3521119;-59
2023/08/24 11:07:03;;;;;;;;;14.00;12.00;;;;;32.25;39.45;99733.69;6297580;20;3489834;-60
2023/08/24 11:09:48;;;;;;;;;11.67;11.67;;;;;31.69;39.65;99736.50;6299357;20;3516984;-60
2023/08/24 11:12:17;;;;;;;;;12.00;12.00;;;;;31.84;40.45;99735.28;6301061;20;3515983;-59
2023/08/24 11:14:54;;;;;;;;;13.67;11.00;;;;;32.42;40.24;99734.72;6301618;20;3509658;-61